sensor_id;sensor_type;location;lat;lon;timestamp;P1;durP1;ratioP1;P2;durP2;ratioP2
53513;SDS011;39768;54.148;12.174;2023-04-03T00:02:01;0.45;;;0.45;;
53513;SDS011;39768;54.148;12.174;2023-04-03T00:06:03;0.40;;;0.40;;
53513;SDS011;39768;54.148;12.174;2023-04-03T00:10:05;0.50;;;0.50;;
53513;SDS011;39768;54.148;12.174;2023-04-03T00:14:07;0.40;;;0.40;;
53513;SDS011;39768;54.148;12.174;2023-04-03T00:18:08;0.50;;;0.50;;
53513;SDS011;39768;54.148;12.174;2023-04-03T00:22:10;0.65;;;0.50;;
53513;SDS011;39768;54.148;12.174;2023-04-03T00:26:11;0.45;;;0.45;;
53513;SDS011;39768;54.148;12.174;2023-04-03T00:30:15;0.43;;;0.43;;
53513;SDS011;39768;54.148;12.174;2023-04-03T00:34:18;0.60;;;0.60;;
53513;SDS011;39768;54.148;12.174;2023-04-03T00:38:20;1.08;;;0.50;;
53513;SDS011;39768;54.148;12.174;2023-04-03T00:42:22;1.80;;;0.70;;
53513;SDS011;39768;54.148;12.174;2023-04-03T00:46:24;0.40;;;0.40;;
53513;SDS011;39768;54.148;12.174;2023-04-03T00:50:26;0.30;;;0.30;;
53513;SDS011;39768;54.148;12.174;2023-04-03T00:54:29;1.05;;;0.68;;
53513;SDS011;39768;54.148;12.174;2023-04-03T00:58:33;0.45;;;0.45;;
53513;SDS011;39768;54.148;12.174;2023-04-03T01:02:38;1.00;;;0.70;;
53513;SDS011;39768;54.148;12.174;2023-04-03T01:06:43;0.32;;;0.32;;
53513;SDS011;39768;54.148;12.174;2023-04-03T01:10:44;0.32;;;0.32;;
53513;SDS011;39768;54.148;12.174;2023-04-03T01:14:48;0.30;;;0.30;;
53513;SDS011;39768;54.148;12.174;2023-04-03T01:18:51;1.25;;;0.52;;
53513;SDS011;39768;54.148;12.174;2023-04-03T01:27:10;0.63;;;0.63;;
53513;SDS011;39768;54.148;12.174;2023-04-03T01:35:37;0.47;;;0.47;;
53513;SDS011;39768;54.148;12.174;2023-04-03T01:39:39;0.55;;;0.55;;
53513;SDS011;39768;54.148;12.174;2023-04-03T01:43:41;5.25;;;0.50;;
53513;SDS011;39768;54.148;12.174;2023-04-03T01:47:42;0.50;;;0.50;;
53513;SDS011;39768;54.148;12.174;2023-04-03T01:51:44;0.45;;;0.43;;
53513;SDS011;39768;54.148;12.174;2023-04-03T01:55:46;0.40;;;0.40;;
53513;SDS011;39768;54.148;12.174;2023-04-03T01:59:47;0.40;;;0.40;;
53513;SDS011;39768;54.148;12.174;2023-04-03T02:03:49;0.80;;;0.43;;
53513;SDS011;39768;54.148;12.174;2023-04-03T02:07:51;0.45;;;0.45;;
53513;SDS011;39768;54.148;12.174;2023-04-03T02:11:52;0.50;;;0.50;;
53513;SDS011;39768;54.148;12.174;2023-04-03T02:15:54;0.47;;;0.47;;
53513;SDS011;39768;54.148;12.174;2023-04-03T02:19:56;1.42;;;0.75;;
53513;SDS011;39768;54.148;12.174;2023-04-03T02:23:57;0.40;;;0.40;;
53513;SDS011;39768;54.148;12.174;2023-04-03T02:27:59;0.60;;;0.60;;
53513;SDS011;39768;54.148;12.174;2023-04-03T02:32:00;0.40;;;0.40;;
53513;SDS011;39768;54.148;12.174;2023-04-03T02:36:04;0.98;;;0.50;;
53513;SDS011;39768;54.148;12.174;2023-04-03T02:40:08;0.30;;;0.30;;
53513;SDS011;39768;54.148;12.174;2023-04-03T02:44:10;0.40;;;0.40;;
53513;SDS011;39768;54.148;12.174;2023-04-03T02:48:12;0.73;;;0.43;;
53513;SDS011;39768;54.148;12.174;2023-04-03T02:52:15;2.40;;;0.50;;
53513;SDS011;39768;54.148;12.174;2023-04-03T02:56:17;0.40;;;0.40;;
53513;SDS011;39768;54.148;12.174;2023-04-03T03:00:20;0.35;;;0.35;;
53513;SDS011;39768;54.148;12.174;2023-04-03T03:04:22;0.45;;;0.45;;
53513;SDS011;39768;54.148;12.174;2023-04-03T03:08:24;1.13;;;0.50;;
53513;SDS011;39768;54.148;12.174;2023-04-03T03:12:25;1.45;;;0.63;;
53513;SDS011;39768;54.148;12.174;2023-04-03T03:16:27;0.77;;;0.77;;
53513;SDS011;39768;54.148;12.174;2023-04-03T03:20:30;0.65;;;0.50;;
53513;SDS011;39768;54.148;12.174;2023-04-03T03:24:32;0.60;;;0.60;;
53513;SDS011;39768;54.148;12.174;2023-04-03T03:28:34;2.45;;;0.52;;
53513;SDS011;39768;54.148;12.174;2023-04-03T03:32:38;0.40;;;0.40;;
53513;SDS011;39768;54.148;12.174;2023-04-03T03:36:40;0.30;;;0.30;;
53513;SDS011;39768;54.148;12.174;2023-04-03T03:40:42;0.40;;;0.40;;
53513;SDS011;39768;54.148;12.174;2023-04-03T03:44:43;3.72;;;0.50;;
53513;SDS011;39768;54.148;12.174;2023-04-03T03:48:45;0.68;;;0.68;;
53513;SDS011;39768;54.148;12.174;2023-04-03T03:52:46;0.50;;;0.50;;
53513;SDS011;39768;54.148;12.174;2023-04-03T03:56:48;0.70;;;0.70;;
53513;SDS011;39768;54.148;12.174;2023-04-03T04:00:49;1.15;;;0.43;;
53513;SDS011;39768;54.148;12.174;2023-04-03T04:04:52;0.93;;;0.43;;
53513;SDS011;39768;54.148;12.174;2023-04-03T04:08:53;0.35;;;0.35;;
53513;SDS011;39768;54.148;12.174;2023-04-03T04:12:55;0.40;;;0.40;;
53513;SDS011;39768;54.148;12.174;2023-04-03T04:17:00;0.20;;;0.20;;
53513;SDS011;39768;54.148;12.174;2023-04-03T04:21:03;0.40;;;0.40;;
53513;SDS011;39768;54.148;12.174;2023-04-03T04:25:05;0.40;;;0.40;;
53513;SDS011;39768;54.148;12.174;2023-04-03T04:29:08;0.47;;;0.47;;
53513;SDS011;39768;54.148;12.174;2023-04-03T04:33:11;0.40;;;0.40;;
53513;SDS011;39768;54.148;12.174;2023-04-03T04:37:15;0.45;;;0.45;;
53513;SDS011;39768;54.148;12.174;2023-04-03T04:41:17;0.40;;;0.40;;
53513;SDS011;39768;54.148;12.174;2023-04-03T04:45:22;0.30;;;0.30;;
53513;SDS011;39768;54.148;12.174;2023-04-03T04:49:24;0.40;;;0.40;;
53513;SDS011;39768;54.148;12.174;2023-04-03T04:53:26;0.40;;;0.40;;
53513;SDS011;39768;54.148;12.174;2023-04-03T04:57:28;0.50;;;0.50;;
53513;SDS011;39768;54.148;12.174;2023-04-03T05:01:32;0.40;;;0.40;;
53513;SDS011;39768;54.148;12.174;2023-04-03T05:05:40;0.68;;;0.68;;
53513;SDS011;39768;54.148;12.174;2023-04-03T05:09:41;1.73;;;0.50;;
53513;SDS011;39768;54.148;12.174;2023-04-03T05:13:45;0.30;;;0.30;;
53513;SDS011;39768;54.148;12.174;2023-04-03T05:17:47;0.40;;;0.40;;
53513;SDS011;39768;54.148;12.174;2023-04-03T05:21:49;0.40;;;0.40;;
53513;SDS011;39768;54.148;12.174;2023-04-03T05:25:51;0.90;;;0.50;;
53513;SDS011;39768;54.148;12.174;2023-04-03T05:29:52;0.65;;;0.60;;
53513;SDS011;39768;54.148;12.174;2023-04-03T05:33:56;0.60;;;0.60;;
53513;SDS011;39768;54.148;12.174;2023-04-03T05:37:59;1.75;;;1.05;;
53513;SDS011;39768;54.148;12.174;2023-04-03T05:42:01;0.50;;;0.50;;
53513;SDS011;39768;54.148;12.174;2023-04-03T05:46:04;0.73;;;0.73;;
53513;SDS011;39768;54.148;12.174;2023-04-03T05:50:11;0.57;;;0.57;;
53513;SDS011;39768;54.148;12.174;2023-04-03T05:54:16;1.98;;;0.50;;
53513;SDS011;39768;54.148;12.174;2023-04-03T05:58:21;0.80;;;0.80;;
53513;SDS011;39768;54.148;12.174;2023-04-03T06:02:25;1.13;;;0.90;;
53513;SDS011;39768;54.148;12.174;2023-04-03T06:06:49;0.45;;;0.45;;
53513;SDS011;39768;54.148;12.174;2023-04-03T06:10:54;3.97;;;0.98;;
53513;SDS011;39768;54.148;12.174;2023-04-03T06:14:56;4.75;;;0.70;;
53513;SDS011;39768;54.148;12.174;2023-04-03T06:18:57;0.40;;;0.40;;
53513;SDS011;39768;54.148;12.174;2023-04-03T06:22:59;0.40;;;0.40;;
53513;SDS011;39768;54.148;12.174;2023-04-03T06:27:01;2.20;;;0.43;;
53513;SDS011;39768;54.148;12.174;2023-04-03T06:31:03;0.40;;;0.40;;
53513;SDS011;39768;54.148;12.174;2023-04-03T06:35:04;0.47;;;0.47;;
53513;SDS011;39768;54.148;12.174;2023-04-03T06:39:07;0.57;;;0.57;;
53513;SDS011;39768;54.148;12.174;2023-04-03T06:43:10;2.38;;;0.63;;
53513;SDS011;39768;54.148;12.174;2023-04-03T06:47:12;0.40;;;0.40;;
53513;SDS011;39768;54.148;12.174;2023-04-03T06:51:17;2.53;;;0.77;;
53513;SDS011;39768;54.148;12.174;2023-04-03T06:55:26;0.40;;;0.40;;
53513;SDS011;39768;54.148;12.174;2023-04-03T06:59:28;1.95;;;0.52;;
53513;SDS011;39768;54.148;12.174;2023-04-03T07:03:29;2.67;;;0.40;;
53513;SDS011;39768;54.148;12.174;2023-04-03T07:07:31;0.65;;;0.60;;
53513;SDS011;39768;54.148;12.174;2023-04-03T07:11:34;0.52;;;0.52;;
53513;SDS011;39768;54.148;12.174;2023-04-03T07:15:36;0.60;;;0.45;;
53513;SDS011;39768;54.148;12.174;2023-04-03T07:19:38;0.50;;;0.50;;
53513;SDS011;39768;54.148;12.174;2023-04-03T07:23:39;1.60;;;0.60;;
53513;SDS011;39768;54.148;12.174;2023-04-03T07:27:41;0.47;;;0.47;;
53513;SDS011;39768;54.148;12.174;2023-04-03T07:31:42;0.30;;;0.30;;
53513;SDS011;39768;54.148;12.174;2023-04-03T07:35:45;0.45;;;0.45;;
53513;SDS011;39768;54.148;12.174;2023-04-03T07:39:46;0.57;;;0.57;;
53513;SDS011;39768;54.148;12.174;2023-04-03T07:43:49;0.30;;;0.30;;
53513;SDS011;39768;54.148;12.174;2023-04-03T07:47:51;0.68;;;0.68;;
53513;SDS011;39768;54.148;12.174;2023-04-03T07:51:52;0.98;;;0.52;;
53513;SDS011;39768;54.148;12.174;2023-04-03T07:55:54;0.47;;;0.47;;
53513;SDS011;39768;54.148;12.174;2023-04-03T07:59:58;0.43;;;0.43;;
53513;SDS011;39768;54.148;12.174;2023-04-03T08:04:00;0.40;;;0.40;;
53513;SDS011;39768;54.148;12.174;2023-04-03T08:08:02;1.75;;;0.65;;
53513;SDS011;39768;54.148;12.174;2023-04-03T08:12:04;2.58;;;0.80;;
53513;SDS011;39768;54.148;12.174;2023-04-03T08:16:12;0.30;;;0.30;;
53513;SDS011;39768;54.148;12.174;2023-04-03T08:20:18;0.40;;;0.40;;
53513;SDS011;39768;54.148;12.174;2023-04-03T08:24:19;0.85;;;0.85;;
53513;SDS011;39768;54.148;12.174;2023-04-03T08:28:21;0.50;;;0.38;;
53513;SDS011;39768;54.148;12.174;2023-04-03T08:32:22;0.40;;;0.40;;
53513;SDS011;39768;54.148;12.174;2023-04-03T08:36:26;0.35;;;0.35;;
53513;SDS011;39768;54.148;12.174;2023-04-03T08:40:29;0.70;;;0.70;;
53513;SDS011;39768;54.148;12.174;2023-04-03T08:44:39;0.90;;;0.55;;
53513;SDS011;39768;54.148;12.174;2023-04-03T08:48:54;0.68;;;0.50;;
53513;SDS011;39768;54.148;12.174;2023-04-03T08:52:57;0.52;;;0.40;;
53513;SDS011;39768;54.148;12.174;2023-04-03T08:57:00;0.40;;;0.40;;
53513;SDS011;39768;54.148;12.174;2023-04-03T09:01:06;0.40;;;0.40;;
53513;SDS011;39768;54.148;12.174;2023-04-03T09:05:32;0.65;;;0.50;;
53513;SDS011;39768;54.148;12.174;2023-04-03T09:09:44;0.40;;;0.40;;
53513;SDS011;39768;54.148;12.174;2023-04-03T09:13:59;2.35;;;0.50;;
53513;SDS011;39768;54.148;12.174;2023-04-03T09:18:15;2.00;;;0.30;;
53513;SDS011;39768;54.148;12.174;2023-04-03T09:22:25;1.83;;;0.57;;
53513;SDS011;39768;54.148;12.174;2023-04-03T09:26:31;0.50;;;0.50;;
53513;SDS011;39768;54.148;12.174;2023-04-03T09:30:38;0.32;;;0.32;;
53513;SDS011;39768;54.148;12.174;2023-04-03T09:34:40;0.30;;;0.30;;
53513;SDS011;39768;54.148;12.174;2023-04-03T09:38:43;0.30;;;0.30;;
53513;SDS011;39768;54.148;12.174;2023-04-03T09:42:44;0.47;;;0.47;;
53513;SDS011;39768;54.148;12.174;2023-04-03T09:46:52;0.30;;;0.30;;
53513;SDS011;39768;54.148;12.174;2023-04-03T09:50:55;0.40;;;0.40;;
53513;SDS011;39768;54.148;12.174;2023-04-03T09:55:43;0.40;;;0.40;;
53513;SDS011;39768;54.148;12.174;2023-04-03T09:59:30;1.50;;;0.43;;
53513;SDS011;39768;54.148;12.174;2023-04-03T10:03:35;0.82;;;0.47;;
53513;SDS011;39768;54.148;12.174;2023-04-03T10:07:37;0.45;;;0.45;;
53513;SDS011;39768;54.148;12.174;2023-04-03T10:11:58;0.40;;;0.40;;
53513;SDS011;39768;54.148;12.174;2023-04-03T10:16:09;0.40;;;0.40;;
53513;SDS011;39768;54.148;12.174;2023-04-03T10:20:23;0.52;;;0.52;;
53513;SDS011;39768;54.148;12.174;2023-04-03T10:24:44;0.40;;;0.40;;
53513;SDS011;39768;54.148;12.174;2023-04-03T10:28:56;0.50;;;0.50;;
53513;SDS011;39768;54.148;12.174;2023-04-03T10:33:11;0.30;;;0.30;;
53513;SDS011;39768;54.148;12.174;2023-04-03T10:37:45;4.28;;;0.50;;
53513;SDS011;39768;54.148;12.174;2023-04-03T10:42:02;0.60;;;0.60;;
53513;SDS011;39768;54.148;12.174;2023-04-03T10:46:23;0.55;;;0.55;;
53513;SDS011;39768;54.148;12.174;2023-04-03T10:55:09;0.38;;;0.38;;
53513;SDS011;39768;54.148;12.174;2023-04-03T10:59:27;0.30;;;0.30;;
53513;SDS011;39768;54.148;12.174;2023-04-03T11:03:35;0.30;;;0.30;;
53513;SDS011;39768;54.148;12.174;2023-04-03T11:07:48;0.55;;;0.55;;
53513;SDS011;39768;54.148;12.174;2023-04-03T11:11:56;0.30;;;0.30;;
53513;SDS011;39768;54.148;12.174;2023-04-03T11:16:04;0.35;;;0.35;;
53513;SDS011;39768;54.148;12.174;2023-04-03T11:20:24;0.40;;;0.40;;
53513;SDS011;39768;54.148;12.174;2023-04-03T11:24:34;0.70;;;0.60;;
53513;SDS011;39768;54.148;12.174;2023-04-03T11:28:39;3.33;;;0.60;;
53513;SDS011;39768;54.148;12.174;2023-04-03T11:41:36;0.30;;;0.30;;
53513;SDS011;39768;54.148;12.174;2023-04-03T11:45:55;4.65;;;0.50;;
53513;SDS011;39768;54.148;12.174;2023-04-03T11:50:07;0.40;;;0.40;;
53513;SDS011;39768;54.148;12.174;2023-04-03T11:54:36;0.30;;;0.30;;
53513;SDS011;39768;54.148;12.174;2023-04-03T12:03:29;1.85;;;0.45;;
53513;SDS011;39768;54.148;12.174;2023-04-03T12:07:31;0.50;;;0.50;;
53513;SDS011;39768;54.148;12.174;2023-04-03T12:11:32;3.00;;;0.50;;
53513;SDS011;39768;54.148;12.174;2023-04-03T12:19:39;2.08;;;0.60;;
53513;SDS011;39768;54.148;12.174;2023-04-03T12:28:24;1.55;;;0.43;;
53513;SDS011;39768;54.148;12.174;2023-04-03T12:32:37;0.57;;;0.40;;
53513;SDS011;39768;54.148;12.174;2023-04-03T12:36:50;0.40;;;0.40;;
53513;SDS011;39768;54.148;12.174;2023-04-03T12:45:27;0.68;;;0.40;;
53513;SDS011;39768;54.148;12.174;2023-04-03T12:53:34;0.40;;;0.40;;
53513;SDS011;39768;54.148;12.174;2023-04-03T12:57:36;2.47;;;0.57;;
53513;SDS011;39768;54.148;12.174;2023-04-03T13:01:38;0.60;;;0.60;;
53513;SDS011;39768;54.148;12.174;2023-04-03T13:05:39;0.30;;;0.30;;
53513;SDS011;39768;54.148;12.174;2023-04-03T13:09:54;2.65;;;0.40;;
53513;SDS011;39768;54.148;12.174;2023-04-03T13:13:57;0.40;;;0.40;;
53513;SDS011;39768;54.148;12.174;2023-04-03T13:18:01;1.35;;;0.38;;
53513;SDS011;39768;54.148;12.174;2023-04-03T13:22:07;3.65;;;0.65;;
53513;SDS011;39768;54.148;12.174;2023-04-03T13:26:20;0.50;;;0.50;;
53513;SDS011;39768;54.148;12.174;2023-04-03T13:30:26;0.40;;;0.40;;
53513;SDS011;39768;54.148;12.174;2023-04-03T13:34:37;0.70;;;0.55;;
53513;SDS011;39768;54.148;12.174;2023-04-03T13:38:41;0.65;;;0.65;;
53513;SDS011;39768;54.148;12.174;2023-04-03T13:42:43;0.40;;;0.40;;
53513;SDS011;39768;54.148;12.174;2023-04-03T13:46:44;0.38;;;0.38;;
53513;SDS011;39768;54.148;12.174;2023-04-03T13:50:59;0.30;;;0.30;;
53513;SDS011;39768;54.148;12.174;2023-04-03T14:00:18;0.30;;;0.30;;
53513;SDS011;39768;54.148;12.174;2023-04-03T14:08:25;0.75;;;0.50;;
53513;SDS011;39768;54.148;12.174;2023-04-03T14:12:42;0.30;;;0.30;;
53513;SDS011;39768;54.148;12.174;2023-04-03T14:16:45;2.58;;;0.73;;
53513;SDS011;39768;54.148;12.174;2023-04-03T14:20:52;5.50;;;0.57;;
53513;SDS011;39768;54.148;12.174;2023-04-03T14:24:53;0.45;;;0.45;;
53513;SDS011;39768;54.148;12.174;2023-04-03T14:28:56;0.40;;;0.40;;
53513;SDS011;39768;54.148;12.174;2023-04-03T14:33:00;0.40;;;0.40;;
53513;SDS011;39768;54.148;12.174;2023-04-03T14:37:02;0.77;;;0.77;;
53513;SDS011;39768;54.148;12.174;2023-04-03T14:41:05;3.08;;;1.90;;
53513;SDS011;39768;54.148;12.174;2023-04-03T14:45:17;4.22;;;1.08;;
53513;SDS011;39768;54.148;12.174;2023-04-03T14:49:20;2.55;;;0.68;;
53513;SDS011;39768;54.148;12.174;2023-04-03T14:53:25;0.50;;;0.50;;
53513;SDS011;39768;54.148;12.174;2023-04-03T14:57:39;9.20;;;1.85;;
53513;SDS011;39768;54.148;12.174;2023-04-03T15:01:41;1.33;;;1.23;;
53513;SDS011;39768;54.148;12.174;2023-04-03T15:05:46;1.02;;;1.02;;
53513;SDS011;39768;54.148;12.174;2023-04-03T15:09:49;1.20;;;1.20;;
53513;SDS011;39768;54.148;12.174;2023-04-03T15:13:51;0.52;;;0.52;;
53513;SDS011;39768;54.148;12.174;2023-04-03T15:17:53;0.57;;;0.57;;
53513;SDS011;39768;54.148;12.174;2023-04-03T15:21:56;0.52;;;0.52;;
53513;SDS011;39768;54.148;12.174;2023-04-03T15:25:57;0.75;;;0.75;;
53513;SDS011;39768;54.148;12.174;2023-04-03T15:29:59;0.82;;;0.82;;
53513;SDS011;39768;54.148;12.174;2023-04-03T15:34:00;0.30;;;0.30;;
53513;SDS011;39768;54.148;12.174;2023-04-03T15:38:02;0.60;;;0.60;;
53513;SDS011;39768;54.148;12.174;2023-04-03T15:42:03;0.40;;;0.40;;
53513;SDS011;39768;54.148;12.174;2023-04-03T15:46:08;0.75;;;0.40;;
53513;SDS011;39768;54.148;12.174;2023-04-03T15:50:10;5.07;;;0.50;;
53513;SDS011;39768;54.148;12.174;2023-04-03T15:54:11;1.00;;;0.60;;
53513;SDS011;39768;54.148;12.174;2023-04-03T15:58:13;1.13;;;0.65;;
53513;SDS011;39768;54.148;12.174;2023-04-03T16:02:14;0.93;;;0.80;;
53513;SDS011;39768;54.148;12.174;2023-04-03T16:06:17;0.43;;;0.43;;
53513;SDS011;39768;54.148;12.174;2023-04-03T16:10:20;0.47;;;0.47;;
53513;SDS011;39768;54.148;12.174;2023-04-03T16:14:21;1.05;;;0.60;;
53513;SDS011;39768;54.148;12.174;2023-04-03T16:18:23;3.90;;;0.47;;
53513;SDS011;39768;54.148;12.174;2023-04-03T16:22:24;0.52;;;0.52;;
53513;SDS011;39768;54.148;12.174;2023-04-03T16:26:28;0.50;;;0.50;;
53513;SDS011;39768;54.148;12.174;2023-04-03T16:30:30;0.32;;;0.32;;
53513;SDS011;39768;54.148;12.174;2023-04-03T16:34:31;2.00;;;0.70;;
53513;SDS011;39768;54.148;12.174;2023-04-03T16:38:33;0.32;;;0.32;;
53513;SDS011;39768;54.148;12.174;2023-04-03T16:42:35;0.35;;;0.35;;
53513;SDS011;39768;54.148;12.174;2023-04-03T16:46:38;0.65;;;0.65;;
53513;SDS011;39768;54.148;12.174;2023-04-03T16:50:40;0.30;;;0.30;;
53513;SDS011;39768;54.148;12.174;2023-04-03T16:54:41;0.50;;;0.50;;
53513;SDS011;39768;54.148;12.174;2023-04-03T16:58:43;2.90;;;0.50;;
53513;SDS011;39768;54.148;12.174;2023-04-03T17:02:44;0.40;;;0.40;;
53513;SDS011;39768;54.148;12.174;2023-04-03T17:06:46;0.30;;;0.30;;
53513;SDS011;39768;54.148;12.174;2023-04-03T17:10:48;1.17;;;0.50;;
53513;SDS011;39768;54.148;12.174;2023-04-03T17:14:51;0.40;;;0.40;;
53513;SDS011;39768;54.148;12.174;2023-04-03T17:18:53;0.45;;;0.45;;
53513;SDS011;39768;54.148;12.174;2023-04-03T17:22:55;3.78;;;0.90;;
53513;SDS011;39768;54.148;12.174;2023-04-03T17:26:57;2.78;;;1.80;;
53513;SDS011;39768;54.148;12.174;2023-04-03T17:30:59;2.25;;;1.40;;
53513;SDS011;39768;54.148;12.174;2023-04-03T17:35:01;2.40;;;1.58;;
53513;SDS011;39768;54.148;12.174;2023-04-03T17:39:03;3.05;;;0.95;;
53513;SDS011;39768;54.148;12.174;2023-04-03T17:43:05;3.67;;;2.60;;
53513;SDS011;39768;54.148;12.174;2023-04-03T17:47:07;5.15;;;1.48;;
53513;SDS011;39768;54.148;12.174;2023-04-03T17:51:13;8.13;;;3.40;;
53513;SDS011;39768;54.148;12.174;2023-04-03T17:55:16;50.60;;;14.23;;
53513;SDS011;39768;54.148;12.174;2023-04-03T17:59:18;22.42;;;10.65;;
53513;SDS011;39768;54.148;12.174;2023-04-03T18:03:20;24.20;;;9.77;;
53513;SDS011;39768;54.148;12.174;2023-04-03T18:07:21;33.50;;;8.25;;
53513;SDS011;39768;54.148;12.174;2023-04-03T18:11:24;10.05;;;5.13;;
53513;SDS011;39768;54.148;12.174;2023-04-03T18:15:28;1.08;;;0.90;;
53513;SDS011;39768;54.148;12.174;2023-04-03T18:19:31;0.40;;;0.40;;
53513;SDS011;39768;54.148;12.174;2023-04-03T18:23:32;0.43;;;0.43;;
53513;SDS011;39768;54.148;12.174;2023-04-03T18:27:36;1.17;;;0.77;;
53513;SDS011;39768;54.148;12.174;2023-04-03T18:31:39;0.57;;;0.57;;
53513;SDS011;39768;54.148;12.174;2023-04-03T18:35:44;1.17;;;0.88;;
53513;SDS011;39768;54.148;12.174;2023-04-03T18:39:46;9.43;;;0.65;;
53513;SDS011;39768;54.148;12.174;2023-04-03T18:43:47;0.60;;;0.60;;
53513;SDS011;39768;54.148;12.174;2023-04-03T18:47:49;0.50;;;0.50;;
53513;SDS011;39768;54.148;12.174;2023-04-03T18:51:51;0.40;;;0.40;;
53513;SDS011;39768;54.148;12.174;2023-04-03T18:55:53;0.57;;;0.52;;
53513;SDS011;39768;54.148;12.174;2023-04-03T18:59:54;0.70;;;0.65;;
53513;SDS011;39768;54.148;12.174;2023-04-03T19:03:56;0.73;;;0.73;;
53513;SDS011;39768;54.148;12.174;2023-04-03T19:07:57;1.15;;;0.50;;
53513;SDS011;39768;54.148;12.174;2023-04-03T19:11:59;1.00;;;0.60;;
53513;SDS011;39768;54.148;12.174;2023-04-03T19:16:02;0.50;;;0.30;;
53513;SDS011;39768;54.148;12.174;2023-04-03T19:20:03;0.30;;;0.30;;
53513;SDS011;39768;54.148;12.174;2023-04-03T19:24:09;1.20;;;0.82;;
53513;SDS011;39768;54.148;12.174;2023-04-03T19:28:11;2.00;;;0.40;;
53513;SDS011;39768;54.148;12.174;2023-04-03T19:32:15;1.75;;;0.60;;
53513;SDS011;39768;54.148;12.174;2023-04-03T19:36:17;0.47;;;0.47;;
53513;SDS011;39768;54.148;12.174;2023-04-03T19:40:19;0.82;;;0.73;;
53513;SDS011;39768;54.148;12.174;2023-04-03T19:44:20;0.50;;;0.50;;
53513;SDS011;39768;54.148;12.174;2023-04-03T19:48:22;1.05;;;1.05;;
53513;SDS011;39768;54.148;12.174;2023-04-03T19:52:23;1.83;;;1.33;;
53513;SDS011;39768;54.148;12.174;2023-04-03T19:56:25;0.45;;;0.45;;
53513;SDS011;39768;54.148;12.174;2023-04-03T20:00:28;0.85;;;0.80;;
53513;SDS011;39768;54.148;12.174;2023-04-03T20:04:31;0.57;;;0.57;;
53513;SDS011;39768;54.148;12.174;2023-04-03T20:08:33;4.80;;;0.80;;
53513;SDS011;39768;54.148;12.174;2023-04-03T20:12:35;0.95;;;0.95;;
53513;SDS011;39768;54.148;12.174;2023-04-03T20:16:37;0.57;;;0.57;;
53513;SDS011;39768;54.148;12.174;2023-04-03T20:20:39;2.30;;;0.93;;
53513;SDS011;39768;54.148;12.174;2023-04-03T20:24:43;0.73;;;0.73;;
53513;SDS011;39768;54.148;12.174;2023-04-03T20:28:45;1.35;;;1.02;;
53513;SDS011;39768;54.148;12.174;2023-04-03T20:32:46;1.42;;;0.50;;
53513;SDS011;39768;54.148;12.174;2023-04-03T20:36:48;3.75;;;0.80;;
53513;SDS011;39768;54.148;12.174;2023-04-03T20:40:50;1.25;;;0.63;;
53513;SDS011;39768;54.148;12.174;2023-04-03T20:44:52;0.70;;;0.70;;
53513;SDS011;39768;54.148;12.174;2023-04-03T20:48:54;1.00;;;0.55;;
53513;SDS011;39768;54.148;12.174;2023-04-03T20:52:55;1.08;;;0.75;;
53513;SDS011;39768;54.148;12.174;2023-04-03T20:56:57;0.98;;;0.57;;
53513;SDS011;39768;54.148;12.174;2023-04-03T21:00:59;0.90;;;0.90;;
53513;SDS011;39768;54.148;12.174;2023-04-03T21:05:01;1.02;;;0.98;;
53513;SDS011;39768;54.148;12.174;2023-04-03T21:22:57;0.65;;;0.65;;
53513;SDS011;39768;54.148;12.174;2023-04-03T21:26:59;0.63;;;0.63;;
53513;SDS011;39768;54.148;12.174;2023-04-03T21:31:02;4.60;;;0.70;;
53513;SDS011;39768;54.148;12.174;2023-04-03T21:35:03;0.63;;;0.63;;
53513;SDS011;39768;54.148;12.174;2023-04-03T21:39:06;0.93;;;0.90;;
53513;SDS011;39768;54.148;12.174;2023-04-03T21:43:08;0.75;;;0.75;;
53513;SDS011;39768;54.148;12.174;2023-04-03T21:47:09;0.55;;;0.55;;
53513;SDS011;39768;54.148;12.174;2023-04-03T21:51:11;0.63;;;0.63;;
53513;SDS011;39768;54.148;12.174;2023-04-03T21:55:14;1.17;;;0.75;;
53513;SDS011;39768;54.148;12.174;2023-04-03T21:59:15;1.00;;;0.82;;
53513;SDS011;39768;54.148;12.174;2023-04-03T22:03:17;0.60;;;0.60;;
53513;SDS011;39768;54.148;12.174;2023-04-03T22:07:21;3.90;;;1.08;;
53513;SDS011;39768;54.148;12.174;2023-04-03T22:11:22;2.42;;;1.23;;
53513;SDS011;39768;54.148;12.174;2023-04-03T22:15:27;5.93;;;1.25;;
53513;SDS011;39768;54.148;12.174;2023-04-03T22:19:30;1.13;;;1.13;;
53513;SDS011;39768;54.148;12.174;2023-04-03T22:23:31;1.15;;;1.05;;
53513;SDS011;39768;54.148;12.174;2023-04-03T22:27:33;1.25;;;0.68;;
53513;SDS011;39768;54.148;12.174;2023-04-03T22:31:35;1.15;;;0.88;;
53513;SDS011;39768;54.148;12.174;2023-04-03T22:35:45;0.50;;;0.50;;
53513;SDS011;39768;54.148;12.174;2023-04-03T22:39:47;1.05;;;0.93;;
53513;SDS011;39768;54.148;12.174;2023-04-03T22:43:49;0.98;;;0.90;;
53513;SDS011;39768;54.148;12.174;2023-04-03T22:47:50;0.80;;;0.80;;
53513;SDS011;39768;54.148;12.174;2023-04-03T22:51:52;0.63;;;0.63;;
53513;SDS011;39768;54.148;12.174;2023-04-03T22:55:57;0.65;;;0.52;;
53513;SDS011;39768;54.148;12.174;2023-04-03T23:00:03;0.75;;;0.73;;
53513;SDS011;39768;54.148;12.174;2023-04-03T23:04:04;0.95;;;0.85;;
53513;SDS011;39768;54.148;12.174;2023-04-03T23:08:06;2.72;;;0.75;;
53513;SDS011;39768;54.148;12.174;2023-04-03T23:12:07;1.17;;;1.08;;
53513;SDS011;39768;54.148;12.174;2023-04-03T23:16:10;1.05;;;0.95;;
53513;SDS011;39768;54.148;12.174;2023-04-03T23:20:12;2.97;;;1.10;;
53513;SDS011;39768;54.148;12.174;2023-04-03T23:24:13;1.20;;;0.95;;
53513;SDS011;39768;54.148;12.174;2023-04-03T23:28:16;0.88;;;0.80;;
53513;SDS011;39768;54.148;12.174;2023-04-03T23:32:17;0.73;;;0.73;;
53513;SDS011;39768;54.148;12.174;2023-04-03T23:36:19;3.33;;;0.80;;
53513;SDS011;39768;54.148;12.174;2023-04-03T23:40:21;1.33;;;0.90;;
53513;SDS011;39768;54.148;12.174;2023-04-03T23:44:23;0.77;;;0.77;;
53513;SDS011;39768;54.148;12.174;2023-04-03T23:48:24;0.50;;;0.50;;
53513;SDS011;39768;54.148;12.174;2023-04-03T23:52:26;0.60;;;0.60;;
53513;SDS011;39768;54.148;12.174;2023-04-03T23:56:27;0.80;;;0.80;;
